| time (UTC) | temp F | wind direction | speed MPH | gust MPH | rain 1hr in | rain 24hr in | rain mn in | humidity % | barometer mb |
| 20260509123022 | 44 | 157 | 4.0 | 12.0 | 0.02 | 0.26 | 0.18 | 98 | 1011.5 |
| 20260509121525 | 44 | 171 | 3.0 | 11.0 | 0.04 | 0.26 | 0.18 | 98 | 1011.8 |
| 20260509120019 | 44 | 178 | 4.0 | 8.0 | 0.05 | 0.25 | 0.17 | 98 | 1011.9 |
| 20260509114518 | 44 | 187 | 3.0 | 9.0 | 0.08 | 0.25 | 0.17 | 98 | 1012.0 |
| 20260509113015 | 44 | 183 | 3.0 | 8.0 | 0.09 | 0.24 | 0.16 | 98 | 1012.1 |
| 20260509111514 | 44 | 181 | 3.0 | 10.0 | 0.08 | 0.22 | 0.14 | 98 | 1012.3 |
| 20260509110013 | 44 | 182 | 2.0 | 7.0 | 0.08 | 0.20 | 0.12 | 98 | 1012.2 |
| 20260509104520 | 44 | 175 | 4.0 | 9.0 | 0.07 | 0.18 | 0.10 | 98 | 1012.1 |
| 20260509103017 | 44 | 163 | 3.0 | 7.0 | 0.05 | 0.15 | 0.07 | 98 | 1012.1 |
| 20260509101516 | 44 | 175 | 3.0 | 7.0 | 0.04 | 0.14 | 0.06 | 97 | 1011.8 |
| 20260509100016 | 44 | 171 | 3.0 | 7.0 | 0.04 | 0.13 | 0.05 | 97 | 1011.9 |
| 20260509094516 | 43 | 193 | 2.0 | 9.0 | 0.03 | 0.12 | 0.04 | 97 | 1011.8 |
| 20260509093013 | 43 | 169 | 3.0 | 7.0 | 0.01 | 0.10 | 0.02 | 97 | 1011.9 |
| 20260509091512 | 43 | 147 | 4.0 | 10.0 | 0.01 | 0.10 | 0.02 | 96 | 1011.9 |
| 20260509090010 | 43 | 165 | 3.0 | 8.0 | 0.00 | 0.09 | 0.01 | 96 | 1012.3 |
| 20260509084521 | 43 | 162 | 2.0 | 9.0 | 0.00 | 0.09 | 0.01 | 96 | 1012.4 |
| 20260509083008 | 43 | 168 | 2.0 | 6.0 | 0.00 | 0.09 | 0.01 | 96 | 1012.4 |
| 20260509081509 | 43 | 174 | 3.0 | 6.0 | 0.00 | 0.09 | 0.01 | 95 | 1012.2 |
| 20260509080019 | 43 | 200 | 0.0 | 4.0 | 0.00 | 0.09 | 0.01 | 95 | 1012.4 |
| 20260509074506 | 43 | 200 | 1.0 | 3.0 | 0.00 | 0.09 | 0.01 | 95 | 1012.4 |
| 20260509073009 | 43 | 200 | 1.0 | 3.0 | 0.00 | 0.09 | 0.01 | 95 | 1012.6 |
| 20260509071508 | 43 | 202 | 0.0 | 8.0 | 0.01 | 0.09 | 0.01 | 94 | 1012.7 |
| 20260509070005 | 43 | 235 | 0.0 | 4.0 | 0.01 | 0.09 | 0.01 | 94 | 1012.8 |
| 20260509064508 | 43 | 235 | 1.0 | 8.0 | 0.01 | 0.09 | 0.01 | 94 | 1013.0 |
| 20260509063100 | 43 | 247 | 3.0 | 10.0 | 0.02 | 0.09 | 0.01 | 94 | 1013.3 |
| 20260509061557 | 43 | 239 | 4.0 | 12.0 | 0.01 | 0.08 | 0.00 | 95 | 1013.6 |
| 20260509060054 | 44 | 212 | 2.0 | 7.0 | 0.02 | 0.08 | 0.00 | 94 | 1013.8 |
| 20260509054554 | 44 | 214 | 2.0 | 4.0 | 0.05 | 0.08 | 0.08 | 94 | 1013.9 |
| 20260509053057 | 44 | 195 | 0.0 | 2.0 | 0.06 | 0.08 | 0.08 | 94 | 1013.9 |
| 20260509051559 | 44 | 199 | 1.0 | 5.0 | 0.05 | 0.07 | 0.07 | 94 | 1014.1 |
| 20260509050051 | 44 | 199 | 3.0 | 8.0 | 0.04 | 0.06 | 0.06 | 94 | 1014.2 |
| 20260509044550 | 44 | 221 | 2.0 | 8.0 | 0.02 | 0.04 | 0.04 | 93 | 1014.2 |
| 20260509043050 | 44 | 212 | 2.0 | 8.0 | 0.00 | 0.02 | 0.02 | 93 | 1014.0 |
| 20260509041551 | 44 | 220 | 2.0 | 9.0 | 0.01 | 0.02 | 0.02 | 93 | 1014.1 |
| 20260509040052 | 44 | 226 | 2.0 | 8.0 | 0.01 | 0.02 | 0.02 | 92 | 1014.0 |
| 20260509034551 | 45 | 226 | 3.0 | 8.0 | 0.02 | 0.02 | 0.02 | 92 | 1014.0 |
| 20260509033106 | 45 | 233 | 2.0 | 11.0 | 0.02 | 0.02 | 0.02 | 91 | 1014.3 |
| 20260509031557 | 45 | 228 | 3.0 | 8.0 | 0.01 | 0.01 | 0.01 | 91 | 1014.3 |
| 20260509030057 | 45 | 196 | 4.0 | 9.0 | 0.01 | 0.01 | 0.01 | 90 | 1014.4 |
| 20260509024555 | 46 | 220 | 3.0 | 9.0 | 0.01 | 0.05 | 0.01 | 89 | 1014.3 |
| 20260509023051 | 46 | 220 | 1.0 | 6.0 | 0.00 | 0.04 | 0.00 | 87 | 1014.2 |
| 20260509021552 | 46 | 200 | 2.0 | 7.0 | 0.00 | 0.04 | 0.00 | 86 | 1014.3 |
| 20260509020053 | 46 | 206 | 3.0 | 7.0 | 0.00 | 0.04 | 0.00 | 86 | 1014.2 |
| 20260509014549 | 46 | 191 | 1.0 | 6.0 | 0.00 | 0.04 | 0.00 | 85 | 1014.1 |
| 20260509013051 | 46 | 181 | 1.0 | 6.0 | 0.00 | 0.04 | 0.00 | 83 | 1013.9 |
| 20260509011544 | 47 | 198 | 1.0 | 6.0 | 0.00 | 0.04 | 0.00 | 82 | 1013.7 |
| 20260509010040 | 47 | 189 | 2.0 | 5.0 | 0.00 | 0.04 | 0.00 | 80 | 1013.7 |
| 20260509004540 | 47 | 177 | 3.0 | 5.0 | 0.00 | 0.04 | 0.00 | 79 | 1013.4 |
| 20260509003041 | 47 | 159 | 1.0 | 3.0 | 0.00 | 0.04 | 0.00 | 78 | 1013.2 |
| 20260509001540 | 48 | 160 | 3.0 | 6.0 | 0.00 | 0.04 | 0.00 | 74 | 1013.3 |
| 20260509000039 | 48 | 160 | 1.0 | 6.0 | 0.00 | 0.04 | 0.00 | 72 | 1013.0 |
| 20260508234539 | 49 | 164 | 1.0 | 5.0 | 0.00 | 0.04 | 0.00 | 69 | 1013.2 |
| 20260508233106 | 49 | 106 | 2.0 | 6.0 | 0.00 | 0.04 | 0.00 | 66 | 1013.0 |
| 20260508231556 | 50 | 103 | 2.0 | 4.0 | 0.00 | 0.04 | 0.00 | 63 | 1012.9 |
| 20260508230057 | 51 | 101 | 2.0 | 3.0 | 0.00 | 0.04 | 0.00 | 61 | 1012.8 |
| 20260508224610 | 51 | 100 | 1.0 | 4.0 | 0.00 | 0.04 | 0.00 | 59 | 1012.9 |
| 20260508223038 | 52 | 97 | 2.0 | 5.0 | 0.00 | 0.04 | 0.00 | 59 | 1012.8 |
| 20260508221538 | 52 | 230 | 4.0 | 11.0 | 0.00 | 0.04 | 0.00 | 54 | 1012.8 |
| 20260508220037 | 53 | 57 | 3.0 | 9.0 | 0.00 | 0.04 | 0.00 | 55 | 1012.8 |
| 20260508214538 | 53 | 226 | 4.0 | 9.0 | 0.00 | 0.04 | 0.00 | 54 | 1012.7 |
| 20260508213037 | 53 | 191 | 4.0 | 10.0 | 0.00 | 0.04 | 0.00 | 55 | 1012.8 |
| 20260508211538 | 53 | 234 | 5.0 | 8.0 | 0.00 | 0.04 | 0.00 | 56 | 1012.9 |
| 20260508210031 | 52 | 257 | 5.0 | 11.0 | 0.00 | 0.04 | 0.00 | 57 | 1012.8 |
| 20260508204529 | 50 | 214 | 3.0 | 9.0 | 0.00 | 0.04 | 0.00 | 61 | 1013.1 |
| 20260508203029 | 50 | 251 | 5.0 | 13.0 | 0.00 | 0.04 | 0.00 | 61 | 1013.4 |
| 20260508201529 | 51 | 235 | 4.0 | 9.0 | 0.00 | 0.04 | 0.00 | 61 | 1013.3 |
| 20260508200029 | 50 | 235 | 5.0 | 9.0 | 0.00 | 0.04 | 0.00 | 64 | 1013.5 |
| 20260508194524 | 49 | 243 | 3.0 | 9.0 | 0.00 | 0.04 | 0.00 | 64 | 1013.5 |
| 20260508193018 | 48 | 181 | 1.0 | 5.0 | 0.00 | 0.04 | 0.00 | 66 | 1013.9 |
| 20260508191520 | 47 | 236 | 0.0 | 4.0 | 0.00 | 0.04 | 0.00 | 69 | 1014.1 |
| 20260508190018 | 47 | 236 | 0.0 | 9.0 | 0.00 | 0.04 | 0.00 | 69 | 1014.0 |
| 20260508184514 | 47 | 235 | 2.0 | 5.0 | 0.00 | 0.04 | 0.00 | 70 | 1014.3 |
| 20260508183019 | 47 | 317 | 2.0 | 6.0 | 0.00 | 0.04 | 0.00 | 70 | 1014.3 |
| 20260508181516 | 46 | 267 | 2.0 | 6.0 | 0.00 | 0.04 | 0.00 | 72 | 1014.4 |
| 20260508180017 | 45 | 245 | 3.0 | 8.0 | 0.00 | 0.04 | 0.00 | 74 | 1014.5 |
| 20260508174512 | 44 | 231 | 1.0 | 6.0 | 0.00 | 0.04 | 0.00 | 76 | 1014.5 |
| 20260508173008 | 44 | 305 | 3.0 | 9.0 | 0.00 | 0.04 | 0.00 | 75 | 1014.8 |
| 20260508171520 | 44 | 258 | 2.0 | 10.0 | 0.00 | 0.04 | 0.00 | 76 | 1014.7 |
| 20260508170006 | 43 | 231 | 1.0 | 9.0 | 0.00 | 0.04 | 0.00 | 77 | 1014.7 |
| 20260508164505 | 43 | 19 | 4.0 | 11.0 | 0.00 | 0.04 | 0.00 | 78 | 1014.7 |
| 20260508163007 | 44 | 280 | 6.0 | 14.0 | 0.00 | 0.04 | 0.00 | 77 | 1014.8 |
| 20260508161505 | 42 | 251 | 4.0 | 15.0 | 0.00 | 0.04 | 0.00 | 82 | 1015.0 |
| 20260508160007 | 40 | 274 | 3.0 | 7.0 | 0.00 | 0.04 | 0.00 | 84 | 1015.1 |
| 20260508154502 | 40 | 285 | 2.0 | 8.0 | 0.00 | 0.04 | 0.00 | 84 | 1014.8 |
| 20260508153059 | 40 | 296 | 3.0 | 11.0 | 0.00 | 0.04 | 0.00 | 83 | 1014.6 |
| 20260508151602 | 41 | 258 | 2.0 | 11.0 | 0.00 | 0.04 | 0.00 | 82 | 1014.6 |
| 20260508150057 | 42 | 242 | 6.0 | 11.0 | 0.00 | 0.04 | 0.00 | 80 | 1014.5 |
| 20260508144555 | 41 | 251 | 5.0 | 12.0 | 0.00 | 0.04 | 0.00 | 82 | 1014.3 |
| 20260508143100 | 41 | 280 | 5.0 | 11.0 | 0.00 | 0.04 | 0.00 | 83 | 1014.3 |
| 20260508141555 | 41 | 260 | 5.0 | 9.0 | 0.00 | 0.04 | 0.00 | 83 | 1013.9 |
| 20260508140057 | 40 | 253 | 6.0 | 11.0 | 0.00 | 0.04 | 0.00 | 85 | 1014.0 |
| 20260508134554 | 40 | 239 | 4.0 | 12.0 | 0.00 | 0.04 | 0.00 | 85 | 1014.1 |
| 20260508133055 | 40 | 215 | 4.0 | 8.0 | 0.00 | 0.04 | 0.00 | 85 | 1014.0 |
| 20260508131548 | 39 | 243 | 3.0 | 8.0 | 0.00 | 0.04 | 0.00 | 86 | 1014.1 |
| 20260508130059 | 37 | 227 | 3.0 | 9.0 | 0.00 | 0.04 | 0.00 | 88 | 1013.8 |
| 20260508124548 | 36 | 218 | 2.0 | 5.0 | 0.00 | 0.04 | 0.00 | 87 | 1013.6 |